createdAt,value
2022-12-15T00:01:50.078Z,97.82
2022-12-15T00:04:35.945Z,97.66
2022-12-15T00:07:21.587Z,96.58
2022-12-15T00:10:06.976Z,96.70
2022-12-15T00:12:52.673Z,96.24
2022-12-15T00:15:39.096Z,97.26
2022-12-15T00:18:25.495Z,97.81
2022-12-15T00:21:10.903Z,96.89
2022-12-15T00:23:56.264Z,96.95
2022-12-15T00:26:43.577Z,96.51
2022-12-15T00:29:30.332Z,96.43
2022-12-15T00:32:15.671Z,96.57
2022-12-15T00:35:01.072Z,95.58
2022-12-15T00:37:46.649Z,94.27
2022-12-15T00:40:16.048Z,95.76
2022-12-15T00:42:42.770Z,97.00
2022-12-15T00:45:13.029Z,97.01
2022-12-15T00:47:39.705Z,96.57
2022-12-15T00:50:25.099Z,97.00
2022-12-15T00:53:10.562Z,97.91
2022-12-15T00:55:59.267Z,98.33
2022-12-15T00:58:45.843Z,98.55
2022-12-15T01:01:31.578Z,97.95
2022-12-15T01:04:17.219Z,97.82
2022-12-15T01:07:02.715Z,97.22
2022-12-15T01:09:47.890Z,95.60
2022-12-15T01:12:35.612Z,95.44
2022-12-15T01:15:21.052Z,96.97
2022-12-15T01:18:07.583Z,98.58
2022-12-15T01:20:34.784Z,98.80
2022-12-15T01:23:02.818Z,99.32
2022-12-15T01:25:29.599Z,99.70
2022-12-15T01:27:56.347Z,99.92
2022-12-15T01:30:25.520Z,98.08
2022-12-15T01:32:52.794Z,97.53
2022-12-15T01:35:20.306Z,97.62
2022-12-15T01:37:46.913Z,96.31
2022-12-15T01:40:37.474Z,95.77
2022-12-15T01:43:04.218Z,95.36
2022-12-15T01:45:30.687Z,94.96
2022-12-15T01:48:01.104Z,96.02
2022-12-15T01:50:29.048Z,95.82
2022-12-15T01:52:55.828Z,95.76
2022-12-15T01:55:25.646Z,96.17
2022-12-15T01:57:54.833Z,95.91
2022-12-15T02:00:21.438Z,95.47
2022-12-15T02:02:48.276Z,94.35
2022-12-15T02:05:14.912Z,93.45
2022-12-15T02:07:42.786Z,94.93
2022-12-15T02:10:10.363Z,96.28
2022-12-15T02:12:39.897Z,96.41
2022-12-15T02:15:37.130Z,96.13
2022-12-15T02:18:19.583Z,96.56
2022-12-15T02:20:52.888Z,97.40
2022-12-15T02:23:47.345Z,97.99
2022-12-15T02:26:42.420Z,97.34
2022-12-15T02:29:44.831Z,96.36
2022-12-15T02:32:14.635Z,96.52
2022-12-15T02:34:53.028Z,95.43
2022-12-15T02:37:34.389Z,93.98
2022-12-15T02:40:01.693Z,95.09
2022-12-15T02:42:30.557Z,96.67
2022-12-15T02:45:04.253Z,96.82
2022-12-15T02:47:46.177Z,96.11
2022-12-15T02:50:46.690Z,96.01
2022-12-15T02:53:32.420Z,97.16
2022-12-15T02:56:19.246Z,97.18
2022-12-15T02:59:06.542Z,98.59
2022-12-15T03:01:37.637Z,99.11
2022-12-15T03:04:05.952Z,99.87
2022-12-15T03:06:32.587Z,99.79
2022-12-15T03:08:59.250Z,98.45
2022-12-15T03:11:25.937Z,96.73
2022-12-15T03:13:53.952Z,96.66
2022-12-15T03:16:21.059Z,96.30
2022-12-15T03:18:47.715Z,96.89
2022-12-15T03:21:14.457Z,98.23
2022-12-15T03:23:41.084Z,99.89
2022-12-15T03:26:07.972Z,100.00
2022-12-15T03:28:34.780Z,99.97
2022-12-15T03:31:01.576Z,98.12
2022-12-15T03:33:28.625Z,97.98
2022-12-15T03:35:56.026Z,98.93
2022-12-15T03:38:22.689Z,100.00
2022-12-15T03:40:49.333Z,100.00
2022-12-15T03:43:15.980Z,100.00
2022-12-15T03:45:43.515Z,100.00
2022-12-15T03:48:10.191Z,100.00
2022-12-15T03:50:37.476Z,100.00
2022-12-15T03:53:05.057Z,100.00
2022-12-15T03:55:31.761Z,100.00
2022-12-15T03:57:59.201Z,100.00
2022-12-15T04:00:25.971Z,100.00
2022-12-15T04:02:53.103Z,100.00
2022-12-15T04:05:25.686Z,100.00
2022-12-15T04:07:53.269Z,100.00
2022-12-15T04:10:20.930Z,100.00
2022-12-15T04:12:47.580Z,100.00
2022-12-15T04:15:14.606Z,100.00
2022-12-15T04:17:41.740Z,100.00
2022-12-15T04:20:11.858Z,100.00
2022-12-15T04:22:40.860Z,100.00
2022-12-15T04:25:27.990Z,100.00
2022-12-15T04:28:14.406Z,100.00
2022-12-15T04:31:10.442Z,100.00
2022-12-15T04:33:59.070Z,100.00
2022-12-15T04:36:45.763Z,100.00
2022-12-15T04:39:31.192Z,100.00
2022-12-15T04:42:18.043Z,100.00
2022-12-15T04:45:03.808Z,100.00
2022-12-15T04:47:49.124Z,100.00
2022-12-15T04:50:34.410Z,100.00
2022-12-15T04:53:31.319Z,100.00
2022-12-15T04:56:18.810Z,100.00
2022-12-15T04:59:05.371Z,100.00
2022-12-15T05:01:51.316Z,100.00
2022-12-15T05:04:36.682Z,100.00
2022-12-15T05:07:22.537Z,100.00
2022-12-15T05:10:14.627Z,100.00
2022-12-15T05:13:00.258Z,100.00
2022-12-15T05:15:45.550Z,100.00
2022-12-15T05:18:31.049Z,100.00
2022-12-15T05:21:19.375Z,100.00
2022-12-15T05:24:04.487Z,100.00
2022-12-15T05:26:53.060Z,100.00
2022-12-15T05:29:39.360Z,100.00
2022-12-15T05:32:07.385Z,100.00
2022-12-15T05:34:35.035Z,100.00
2022-12-15T05:37:03.604Z,100.00
2022-12-15T05:39:30.282Z,100.00
2022-12-15T05:41:57.114Z,100.00
2022-12-15T05:44:24.630Z,100.00
2022-12-15T05:46:51.302Z,100.00
2022-12-15T05:49:18.591Z,100.00
2022-12-15T05:51:47.085Z,100.00
2022-12-15T05:54:17.876Z,100.00
2022-12-15T05:56:45.399Z,100.00
2022-12-15T05:59:12.087Z,100.00
2022-12-15T06:01:38.833Z,100.00
2022-12-15T06:04:05.629Z,100.00
2022-12-15T06:06:32.500Z,100.00
2022-12-15T06:08:59.230Z,100.00
2022-12-15T06:11:26.269Z,100.00
2022-12-15T06:13:54.663Z,100.00
2022-12-15T06:16:22.747Z,100.00
2022-12-15T06:18:53.088Z,100.00
2022-12-15T06:21:25.895Z,100.00
2022-12-15T06:23:53.131Z,100.00
2022-12-15T06:26:29.888Z,100.00
2022-12-15T06:28:58.354Z,100.00
2022-12-15T06:31:25.837Z,100.00
2022-12-15T06:33:59.230Z,100.00
2022-12-15T06:36:28.674Z,100.00
2022-12-15T06:38:59.056Z,100.00
2022-12-15T06:41:25.678Z,100.00
2022-12-15T06:43:58.282Z,100.00
2022-12-15T06:46:26.303Z,100.00
2022-12-15T06:48:53.287Z,100.00
2022-12-15T06:51:20.038Z,100.00
2022-12-15T06:53:50.824Z,100.00
2022-12-15T06:56:33.551Z,100.00
2022-12-15T06:59:01.751Z,100.00
2022-12-15T07:01:28.725Z,100.00
2022-12-15T07:03:55.943Z,100.00
2022-12-15T07:06:22.902Z,100.00
2022-12-15T07:08:54.361Z,100.00
2022-12-15T07:11:22.185Z,100.00
2022-12-15T07:13:52.915Z,100.00
2022-12-15T07:16:20.507Z,100.00
2022-12-15T07:18:47.292Z,100.00
2022-12-15T07:21:14.396Z,100.00
2022-12-15T07:23:57.459Z,100.00
2022-12-15T07:26:25.103Z,100.00
2022-12-15T07:28:53.011Z,100.00
2022-12-15T07:31:19.820Z,100.00
2022-12-15T07:33:48.367Z,100.00
2022-12-15T07:36:15.389Z,100.00
2022-12-15T07:38:42.173Z,100.00
2022-12-15T07:41:10.112Z,100.00
2022-12-15T07:43:37.818Z,100.00
2022-12-15T07:46:05.150Z,100.00
2022-12-15T07:48:32.376Z,100.00
2022-12-15T07:51:07.528Z,100.00
2022-12-15T07:53:36.840Z,100.00
2022-12-15T07:56:07.966Z,100.00
2022-12-15T07:58:36.696Z,100.00
2022-12-15T08:01:05.794Z,100.00
2022-12-15T08:03:33.298Z,100.00
2022-12-15T08:06:11.268Z,100.00
2022-12-15T08:08:38.215Z,100.00
2022-12-15T08:11:06.223Z,100.00
2022-12-15T08:16:23.564Z,100.00
2022-12-15T08:18:50.320Z,100.00
2022-12-15T08:21:16.916Z,100.00
2022-12-15T08:23:43.607Z,100.00
2022-12-15T08:26:13.894Z,100.00
2022-12-15T08:28:41.445Z,100.00
2022-12-15T08:31:10.234Z,100.00
2022-12-15T08:33:37.717Z,100.00
2022-12-15T08:36:07.756Z,100.00
2022-12-15T08:38:38.687Z,100.00
2022-12-15T08:41:09.221Z,100.00
2022-12-15T08:43:36.442Z,100.00
2022-12-15T08:46:03.904Z,100.00
2022-12-15T08:48:30.877Z,100.00
2022-12-15T08:50:58.839Z,100.00
2022-12-15T08:53:33.596Z,100.00
2022-12-15T08:56:05.830Z,100.00
2022-12-15T08:58:33.140Z,100.00
2022-12-15T09:01:18.870Z,100.00
2022-12-15T09:03:50.258Z,100.00
2022-12-15T09:06:19.079Z,100.00
2022-12-15T09:08:48.578Z,100.00
2022-12-15T09:11:17.372Z,100.00
2022-12-15T09:13:44.520Z,100.00
2022-12-15T09:16:14.368Z,100.00
2022-12-15T09:18:52.121Z,100.00
2022-12-15T09:21:22.500Z,100.00
2022-12-15T09:23:52.055Z,100.00
2022-12-15T09:26:20.265Z,100.00
2022-12-15T09:28:50.462Z,100.00
2022-12-15T09:31:23.564Z,100.00
2022-12-15T09:33:52.492Z,100.00
2022-12-15T09:36:19.650Z,100.00
2022-12-15T09:38:46.338Z,100.00
2022-12-15T09:41:12.920Z,100.00
2022-12-15T09:44:00.738Z,100.00
2022-12-15T09:46:41.973Z,100.00
2022-12-15T09:49:22.693Z,100.00
2022-12-15T09:52:13.103Z,100.00
2022-12-15T09:54:41.848Z,100.00
2022-12-15T09:57:24.106Z,100.00
2022-12-15T10:00:02.517Z,100.00
2022-12-15T10:02:45.749Z,100.00
2022-12-15T10:06:07.400Z,100.00
2022-12-15T10:08:22.895Z,100.00
2022-12-15T10:10:58.939Z,100.00
2022-12-15T10:13:32.473Z,100.00
2022-12-15T10:16:06.305Z,100.00
2022-12-15T10:18:39.412Z,100.00
2022-12-15T10:21:09.604Z,100.00
2022-12-15T10:23:36.984Z,100.00
2022-12-15T10:26:23.317Z,100.00
2022-12-15T10:29:11.195Z,100.00
2022-12-15T10:31:48.508Z,100.00
2022-12-15T10:34:25.269Z,100.00
2022-12-15T10:36:52.992Z,100.00
2022-12-15T10:39:23.522Z,100.00
2022-12-15T10:42:11.144Z,100.00
2022-12-15T10:44:39.826Z,100.00
2022-12-15T10:47:14.661Z,100.00
2022-12-15T10:49:44.468Z,100.00
2022-12-15T10:52:37.160Z,100.00
2022-12-15T10:55:43.936Z,100.00
2022-12-15T10:58:21.773Z,100.00
2022-12-15T11:01:08.855Z,100.00
2022-12-15T11:03:42.841Z,100.00
2022-12-15T11:06:31.603Z,100.00
2022-12-15T11:09:10.095Z,100.00
2022-12-15T11:12:05.598Z,100.00
2022-12-15T11:14:51.003Z,100.00
2022-12-15T11:17:22.042Z,100.00
2022-12-15T11:20:02.326Z,100.00
2022-12-15T11:22:47.306Z,100.00
2022-12-15T11:25:26.808Z,100.00
2022-12-15T11:27:58.751Z,100.00
2022-12-15T11:30:31.499Z,100.00
2022-12-15T11:32:59.369Z,100.00
2022-12-15T11:35:42.786Z,100.00
2022-12-15T11:38:20.134Z,100.00
2022-12-15T11:40:46.856Z,100.00
2022-12-15T11:43:45.223Z,100.00
2022-12-15T11:46:24.249Z,100.00
2022-12-15T11:48:56.900Z,100.00
2022-12-15T11:51:43.325Z,100.00
2022-12-15T11:54:18.269Z,100.00
2022-12-15T11:56:53.586Z,100.00
2022-12-15T11:59:23.253Z,100.00
2022-12-15T12:02:08.799Z,100.00
2022-12-15T12:05:01.430Z,100.00
2022-12-15T12:07:42.715Z,100.00
2022-12-15T12:10:47.922Z,100.00
2022-12-15T12:13:26.881Z,100.00
2022-12-15T12:16:11.744Z,100.00
2022-12-15T12:18:45.099Z,100.00
2022-12-15T12:21:22.288Z,100.00
2022-12-15T12:23:53.721Z,100.00
2022-12-15T12:26:29.446Z,100.00
2022-12-15T12:29:13.151Z,100.00
2022-12-15T12:32:02.182Z,100.00
2022-12-15T12:34:34.777Z,100.00
2022-12-15T12:37:14.058Z,100.00
2022-12-15T12:39:40.839Z,100.00
2022-12-15T12:42:16.311Z,100.00
2022-12-15T12:44:43.123Z,100.00
2022-12-15T12:47:17.959Z,100.00
2022-12-15T12:49:51.526Z,100.00
2022-12-15T12:52:23.115Z,100.00
2022-12-15T12:55:00.815Z,100.00
2022-12-15T12:57:35.873Z,100.00
2022-12-15T13:00:13.317Z,100.00
2022-12-15T13:02:46.990Z,100.00
2022-12-15T13:05:29.902Z,100.00
2022-12-15T13:08:05.695Z,100.00
2022-12-15T13:10:37.192Z,100.00
2022-12-15T13:13:36.878Z,100.00
2022-12-15T13:16:25.603Z,100.00
2022-12-15T13:19:06.951Z,100.00
2022-12-15T13:21:45.685Z,100.00
2022-12-15T13:24:35.993Z,100.00
2022-12-15T13:27:08.592Z,100.00
2022-12-15T13:29:37.083Z,100.00
2022-12-15T13:32:04.095Z,100.00
2022-12-15T13:34:38.920Z,100.00
2022-12-15T13:37:17.000Z,100.00
2022-12-15T13:39:56.034Z,100.00
2022-12-15T13:42:38.829Z,100.00
2022-12-15T13:45:25.093Z,100.00
2022-12-15T13:47:54.584Z,100.00
2022-12-15T13:50:53.380Z,100.00
2022-12-15T13:53:22.486Z,100.00
2022-12-15T13:56:17.437Z,100.00
2022-12-15T13:58:44.855Z,100.00
2022-12-15T14:01:30.199Z,100.00
2022-12-15T14:04:06.927Z,100.00
2022-12-15T14:06:40.482Z,100.00
2022-12-15T14:09:13.977Z,100.00
2022-12-15T14:11:57.056Z,100.00
2022-12-15T14:14:26.088Z,100.00
2022-12-15T14:16:56.235Z,100.00
2022-12-15T14:19:22.927Z,100.00
2022-12-15T14:21:52.110Z,100.00
2022-12-15T14:24:41.159Z,100.00
2022-12-15T14:27:08.143Z,100.00
2022-12-15T14:29:34.829Z,100.00
2022-12-15T14:32:01.698Z,100.00
2022-12-15T14:34:39.948Z,100.00
2022-12-15T14:37:17.951Z,100.00
2022-12-15T14:39:46.838Z,100.00
2022-12-15T14:42:23.905Z,100.00
2022-12-15T14:44:54.932Z,100.00
2022-12-15T14:47:32.190Z,100.00
2022-12-15T14:49:58.741Z,100.00
2022-12-15T14:52:30.655Z,100.00
2022-12-15T14:54:59.701Z,100.00
2022-12-15T14:57:29.035Z,100.00
2022-12-15T14:59:55.762Z,100.00
2022-12-15T15:02:30.117Z,100.00
2022-12-15T15:04:59.752Z,100.00
2022-12-15T15:07:28.692Z,100.00
2022-12-15T15:09:55.665Z,100.00
2022-12-15T15:12:24.438Z,100.00
2022-12-15T15:14:55.133Z,100.00
2022-12-15T15:17:31.097Z,100.00
2022-12-15T15:20:00.799Z,100.00
2022-12-15T15:22:42.366Z,100.00
2022-12-15T15:25:28.901Z,100.00
2022-12-15T15:28:03.889Z,100.00
2022-12-15T15:30:42.853Z,100.00
2022-12-15T15:33:10.367Z,100.00
2022-12-15T15:35:37.059Z,100.00
2022-12-15T15:38:29.647Z,100.00
2022-12-15T15:40:58.785Z,100.00
2022-12-15T15:43:26.590Z,100.00
2022-12-15T15:46:02.817Z,100.00
2022-12-15T15:48:38.375Z,100.00
2022-12-15T15:51:05.641Z,100.00
2022-12-15T15:53:33.618Z,100.00
2022-12-15T15:56:00.821Z,100.00
2022-12-15T15:58:27.420Z,100.00
2022-12-15T16:00:54.049Z,100.00
2022-12-15T16:03:20.785Z,100.00
2022-12-15T16:05:47.582Z,100.00
2022-12-15T16:08:19.762Z,100.00
2022-12-15T16:10:48.088Z,100.00
2022-12-15T16:13:16.748Z,100.00
2022-12-15T16:15:43.420Z,100.00
2022-12-15T16:18:10.210Z,100.00
2022-12-15T16:20:38.279Z,100.00
2022-12-15T16:23:16.902Z,100.00
2022-12-15T16:25:53.837Z,100.00
2022-12-15T16:28:28.810Z,100.00
2022-12-15T16:30:56.202Z,100.00
2022-12-15T16:33:24.681Z,100.00
2022-12-15T16:35:53.379Z,100.00
2022-12-15T16:38:26.133Z,100.00
2022-12-15T16:40:53.456Z,100.00
2022-12-15T16:43:24.900Z,100.00
2022-12-15T16:45:53.850Z,100.00
2022-12-15T16:48:21.039Z,100.00
2022-12-15T16:50:53.010Z,100.00
2022-12-15T16:53:35.639Z,100.00
2022-12-15T16:56:05.242Z,100.00
2022-12-15T16:58:34.619Z,100.00
2022-12-15T17:01:01.740Z,100.00
2022-12-15T17:03:28.530Z,100.00
2022-12-15T17:06:01.661Z,100.00
2022-12-15T17:08:40.103Z,100.00
2022-12-15T17:11:09.575Z,100.00
2022-12-15T17:13:45.341Z,100.00
2022-12-15T17:16:14.536Z,100.00
2022-12-15T17:18:42.901Z,100.00
2022-12-15T17:21:15.478Z,100.00
2022-12-15T17:23:44.637Z,100.00
2022-12-15T17:26:28.203Z,100.00
2022-12-15T17:28:59.307Z,100.00
2022-12-15T17:31:34.723Z,100.00
2022-12-15T17:34:06.552Z,100.00
2022-12-15T17:36:33.322Z,100.00
2022-12-15T17:39:01.122Z,100.00
2022-12-15T17:41:58.005Z,100.00
2022-12-15T17:44:37.809Z,100.00
2022-12-15T17:47:07.236Z,100.00
2022-12-15T17:49:37.694Z,100.00
2022-12-15T17:52:19.279Z,100.00
2022-12-15T17:54:46.092Z,100.00
2022-12-15T17:57:13.188Z,100.00
2022-12-15T17:59:39.840Z,100.00
2022-12-15T18:02:07.261Z,100.00
2022-12-15T18:04:34.020Z,100.00
2022-12-15T18:07:02.396Z,100.00
2022-12-15T18:09:29.766Z,100.00
2022-12-15T18:11:56.460Z,100.00
2022-12-15T18:14:23.192Z,100.00
2022-12-15T18:16:50.029Z,100.00
2022-12-15T18:19:16.821Z,100.00
2022-12-15T18:21:44.690Z,100.00
2022-12-15T18:24:17.244Z,100.00
2022-12-15T18:26:44.328Z,100.00
2022-12-15T18:29:17.746Z,100.00
2022-12-15T18:31:48.429Z,100.00
2022-12-15T18:34:21.246Z,100.00
2022-12-15T18:36:48.400Z,100.00
2022-12-15T18:39:20.864Z,100.00
2022-12-15T18:41:48.261Z,100.00
2022-12-15T18:44:26.104Z,100.00
2022-12-15T18:46:55.163Z,100.00
2022-12-15T18:49:23.285Z,100.00
2022-12-15T18:51:50.516Z,100.00
2022-12-15T18:54:19.213Z,100.00
2022-12-15T18:56:45.912Z,100.00
2022-12-15T18:59:17.587Z,100.00
2022-12-15T19:01:45.801Z,100.00
2022-12-15T19:04:12.672Z,100.00
2022-12-15T19:06:41.057Z,100.00
2022-12-15T19:09:13.567Z,100.00
2022-12-15T19:11:40.348Z,100.00
2022-12-15T19:14:33.219Z,100.00
2022-12-15T19:17:18.573Z,100.00
2022-12-15T19:20:03.853Z,100.00
2022-12-15T19:22:31.273Z,100.00
2022-12-15T19:24:59.071Z,100.00
2022-12-15T19:27:26.617Z,100.00
2022-12-15T19:29:54.398Z,100.00
2022-12-15T19:32:21.628Z,100.00
2022-12-15T19:34:48.561Z,100.00
2022-12-15T19:37:29.820Z,100.00
2022-12-15T19:39:59.837Z,100.00
2022-12-15T19:42:34.471Z,100.00
2022-12-15T19:45:01.791Z,100.00
2022-12-15T19:47:29.660Z,100.00
2022-12-15T19:49:56.310Z,100.00
2022-12-15T19:52:23.037Z,100.00
2022-12-15T19:54:50.877Z,100.00
2022-12-15T19:57:19.285Z,100.00
2022-12-15T19:59:48.983Z,100.00
2022-12-15T20:02:20.433Z,100.00
2022-12-15T20:04:48.479Z,100.00
2022-12-15T20:07:35.337Z,100.00
2022-12-15T20:10:02.165Z,100.00
2022-12-15T20:12:29.957Z,100.00
2022-12-15T20:14:56.618Z,100.00
2022-12-15T20:17:23.254Z,100.00
2022-12-15T20:19:50.107Z,100.00
2022-12-15T20:22:19.121Z,100.00
2022-12-15T20:24:47.405Z,100.00
2022-12-15T20:27:18.758Z,100.00
2022-12-15T20:29:51.237Z,100.00
2022-12-15T20:32:20.245Z,100.00
2022-12-15T20:34:47.493Z,100.00
2022-12-15T20:37:30.287Z,100.00
2022-12-15T20:39:57.904Z,100.00
2022-12-15T20:42:25.316Z,100.00
2022-12-15T20:44:51.947Z,100.00
2022-12-15T20:47:26.076Z,100.00
2022-12-15T20:49:54.278Z,100.00
2022-12-15T20:52:24.088Z,100.00
2022-12-15T20:54:51.794Z,100.00
2022-12-15T20:57:18.538Z,100.00
2022-12-15T20:59:45.490Z,100.00
2022-12-15T21:02:18.442Z,100.00
2022-12-15T21:04:45.751Z,100.00
2022-12-15T21:07:12.471Z,100.00
2022-12-15T21:09:39.644Z,100.00
2022-12-15T21:12:32.586Z,100.00
2022-12-15T21:14:59.309Z,100.00
2022-12-15T21:17:26.229Z,100.00
2022-12-15T21:19:52.960Z,100.00
2022-12-15T21:22:27.390Z,100.00
2022-12-15T21:24:56.293Z,100.00
2022-12-15T21:27:23.228Z,100.00
2022-12-15T21:29:52.702Z,100.00
2022-12-15T21:32:20.590Z,100.00
2022-12-15T21:34:49.453Z,100.00
2022-12-15T21:37:24.873Z,100.00
2022-12-15T21:39:54.508Z,100.00
2022-12-15T21:42:21.929Z,100.00
2022-12-15T21:44:50.894Z,100.00
2022-12-15T21:47:24.881Z,100.00
2022-12-15T21:49:51.826Z,100.00
2022-12-15T21:52:19.775Z,100.00
2022-12-15T21:54:46.420Z,100.00
2022-12-15T21:57:13.177Z,100.00
2022-12-15T21:59:41.988Z,100.00
2022-12-15T22:02:23.400Z,100.00
2022-12-15T22:04:51.768Z,100.00
2022-12-15T22:07:18.809Z,100.00
2022-12-15T22:09:45.441Z,100.00
2022-12-15T22:12:26.649Z,100.00
2022-12-15T22:14:53.353Z,100.00
2022-12-15T22:17:21.778Z,100.00
2022-12-15T22:19:48.502Z,100.00
2022-12-15T22:22:15.571Z,100.00
2022-12-15T22:24:46.000Z,100.00
2022-12-15T22:27:21.783Z,100.00
2022-12-15T22:29:49.022Z,100.00
2022-12-15T22:32:17.054Z,100.00
2022-12-15T22:34:44.451Z,100.00
2022-12-15T22:37:11.162Z,100.00
2022-12-15T22:39:46.481Z,100.00
2022-12-15T22:42:16.909Z,100.00
2022-12-15T22:44:46.715Z,100.00
2022-12-15T22:47:19.482Z,100.00
2022-12-15T22:49:46.260Z,100.00
2022-12-15T22:52:18.782Z,100.00
2022-12-15T22:54:46.298Z,100.00
2022-12-15T22:57:21.146Z,100.00
2022-12-15T23:00:00.444Z,100.00
2022-12-15T23:02:28.973Z,100.00
2022-12-15T23:04:55.899Z,100.00
2022-12-15T23:07:22.561Z,100.00
2022-12-15T23:10:15.349Z,100.00
2022-12-15T23:12:42.035Z,100.00
2022-12-15T23:15:27.771Z,100.00
2022-12-15T23:17:54.559Z,100.00
2022-12-15T23:20:21.761Z,100.00
2022-12-15T23:22:48.706Z,100.00
2022-12-15T23:25:16.185Z,100.00
2022-12-15T23:27:42.846Z,100.00
2022-12-15T23:30:09.833Z,100.00
2022-12-15T23:32:39.886Z,100.00
2022-12-15T23:35:11.967Z,100.00
2022-12-15T23:37:38.592Z,100.00
2022-12-15T23:40:13.570Z,100.00
2022-12-15T23:42:40.233Z,100.00
2022-12-15T23:45:13.338Z,100.00
2022-12-15T23:47:40.105Z,100.00
2022-12-15T23:50:10.129Z,100.00
2022-12-15T23:52:37.763Z,100.00
2022-12-15T23:55:10.603Z,100.00
2022-12-15T23:57:38.253Z,100.00
